Weather at Dare County Regional Airport

Public forecast

Using degrees Fahrenheit for public forecast. Weather courtesy of forecast.io.

Current aviation weather report (METAR) for Dare County Regional Airport

2024/06/22 00:25 (retrieved 17 minutes ago)

KMQI 220025Z AUTO 19008KT 10SM CLR 26/21 A3018 RMK AO2 T02610209

Closest aviation forecast (TAF) to Dare County Regional Airport

Forecast is more than 6 hours old.

Closest forecast is Langley Air Force Base, 76.9 nm (142.4 km) NNW.

2024/06/21 17:06 (retrieved 8 hours ago)

TAF KLFI 211700Z 2117/2223 VRB06KT 9999 FEW040 SCT080 QNH3023INS BECMG 2200/2201 15012KT 9999 SKC QNH3014INS BECMG 2208/2209 22012KT 9999 FEW050 QNH3012INS BECMG 2216/2217 VRB06KT 9999 FEW030 SCT060 QNH3008INS TX32/2120Z TN26/2210Z